Disclaimer

Please do not use the information listed here in-flight or in-navigation, as they are not provided to us by the airports but are provided by volunteers, so they might be outdated.

Search


Regions


Airport information page

No radio frequency information is available.

Airport informations:
Latitude: 28° 35' 04.24" N
Longitude: 077° 12' 20.82" E
Elevation: 705 feet - 215 meters
Operating hours: N/A
Operating agency: Civil government, landing fees and diplomatic clearance may be required
Timezone: UTC+5:30
Fuel: N/A

Runway information:
12/30 - 4520 x 150 feet< - >1378 x 46 meters

Recent METARs:
VIDD 180600Z 23002KT 2500 HZ NSC 26/13 Q1015 BECMG 3000 HZ
VIDD 180630Z 13002KT 3000 HZ NSC 27/13 Q1015 NOSIG
VIDD 180700Z 15002KT 3000 HZ NSC 28/11 Q1014 NOSIG

Airport on the map: